Main page
METAR-TAF:

METAR-TAF

Airports :

Ely Airport

Ely, Nevada, United States

latitude: 39-17-42N, longitude: 114-50-43W, elevation: 6255 ft

Current weather observation

The report was made 19 minutes ago, at 10:53 UTC
Wind 8 mph from the South
Temperature 19°F
Humidity 93%
Pressure 30.22 in. Hg
Visibility: 10 miles
Clear sky

METAR: KELY 221053Z AUTO 17007KT 10SM CLR M07/M08 A3022 RMK AO2 SLP242 I1000 T10671083

Time: 03:12 (11:12 UTC)

Forecast

The report was made 5 hours and 50 minutes ago, at 05:22 UTC
Forecast valid from 22 at 06 UTC to 23 at 06 UTC
Wind 7 mph from variable directions
Visibility: 6 miles
Clear sky
From 22 at 0900 UTC
Wind 7 mph from the South
Visibility: 6 miles
Scattered clouds at a height of 1000 ft
mist, fog in vicinity
From 22 at 1700 UTC
Wind 6 mph from variable directions
Visibility: 6 miles
Clear sky

TAF: KELY 220522Z 2206/2306 VRB06KT P6SM SKC FM220900 18006KT 6SM BR VCFG SCT010 FM221700 VRB05KT P6SM SKC

Weather observations and forecasts of more than 4000 airports (METAR and TAF reports).

The available stations are represented by yellow and red dots on the map.

Hover mouse over dot to see the name of the station.

Then click to see weather observations and forecasts.

To change the map : click on the green buttons with a black cross to zoom in, on the green button with a dash to zoom out, or on the green arrows for adjacent maps.


METAR-TAF: